sensor_id;sensor_type;location;lat;lon;timestamp;P1;durP1;ratioP1;P2;durP2;ratioP2
4585;SDS011;2305;50.118;8.952;2024-03-02T00:01:58;5.17;;;3.10;;
4585;SDS011;2305;50.118;8.952;2024-03-02T00:04:26;4.97;;;3.10;;
4585;SDS011;2305;50.118;8.952;2024-03-02T00:06:55;4.40;;;3.07;;
4585;SDS011;2305;50.118;8.952;2024-03-02T00:09:25;7.70;;;3.40;;
4585;SDS011;2305;50.118;8.952;2024-03-02T00:11:53;5.10;;;3.27;;
4585;SDS011;2305;50.118;8.952;2024-03-02T00:14:21;4.50;;;3.30;;
4585;SDS011;2305;50.118;8.952;2024-03-02T00:16:50;4.50;;;3.03;;
4585;SDS011;2305;50.118;8.952;2024-03-02T00:19:21;6.93;;;3.77;;
4585;SDS011;2305;50.118;8.952;2024-03-02T00:21:49;5.30;;;3.50;;
4585;SDS011;2305;50.118;8.952;2024-03-02T00:24:18;3.50;;;2.93;;
4585;SDS011;2305;50.118;8.952;2024-03-02T00:26:50;4.77;;;2.87;;
4585;SDS011;2305;50.118;8.952;2024-03-02T00:29:18;5.73;;;3.50;;
4585;SDS011;2305;50.118;8.952;2024-03-02T00:31:47;5.70;;;3.73;;
4585;SDS011;2305;50.118;8.952;2024-03-02T00:34:15;9.87;;;4.20;;
4585;SDS011;2305;50.118;8.952;2024-03-02T00:36:46;5.30;;;3.50;;
4585;SDS011;2305;50.118;8.952;2024-03-02T00:39:15;6.10;;;3.87;;
4585;SDS011;2305;50.118;8.952;2024-03-02T00:41:44;4.87;;;3.20;;
4585;SDS011;2305;50.118;8.952;2024-03-02T00:44:13;4.50;;;3.10;;
4585;SDS011;2305;50.118;8.952;2024-03-02T00:46:42;6.23;;;4.10;;
4585;SDS011;2305;50.118;8.952;2024-03-02T00:49:12;8.87;;;3.77;;
4585;SDS011;2305;50.118;8.952;2024-03-02T00:51:48;6.17;;;3.80;;
4585;SDS011;2305;50.118;8.952;2024-03-02T00:54:19;6.53;;;3.53;;
4585;SDS011;2305;50.118;8.952;2024-03-02T00:56:48;11.53;;;4.60;;
4585;SDS011;2305;50.118;8.952;2024-03-02T00:59:16;7.27;;;4.47;;
4585;SDS011;2305;50.118;8.952;2024-03-02T01:01:47;5.17;;;3.70;;
4585;SDS011;2305;50.118;8.952;2024-03-02T01:04:17;6.57;;;4.70;;
4585;SDS011;2305;50.118;8.952;2024-03-02T01:06:45;6.33;;;4.33;;
4585;SDS011;2305;50.118;8.952;2024-03-02T01:09:14;6.40;;;4.07;;
4585;SDS011;2305;50.118;8.952;2024-03-02T01:11:44;5.63;;;4.30;;
4585;SDS011;2305;50.118;8.952;2024-03-02T01:14:13;8.17;;;4.57;;
4585;SDS011;2305;50.118;8.952;2024-03-02T01:16:41;6.90;;;4.30;;
4585;SDS011;2305;50.118;8.952;2024-03-02T01:19:12;9.37;;;5.40;;
4585;SDS011;2305;50.118;8.952;2024-03-02T01:21:40;8.13;;;4.90;;
4585;SDS011;2305;50.118;8.952;2024-03-02T01:24:08;9.30;;;4.67;;
4585;SDS011;2305;50.118;8.952;2024-03-02T01:26:40;5.17;;;4.00;;
4585;SDS011;2305;50.118;8.952;2024-03-02T01:29:11;7.10;;;4.30;;
4585;SDS011;2305;50.118;8.952;2024-03-02T01:31:40;6.27;;;4.03;;
4585;SDS011;2305;50.118;8.952;2024-03-02T01:34:09;7.23;;;4.40;;
4585;SDS011;2305;50.118;8.952;2024-03-02T01:36:39;7.67;;;3.90;;
4585;SDS011;2305;50.118;8.952;2024-03-02T01:39:08;9.77;;;4.30;;
4585;SDS011;2305;50.118;8.952;2024-03-02T01:41:36;6.43;;;4.17;;
4585;SDS011;2305;50.118;8.952;2024-03-02T01:44:07;6.27;;;4.20;;
4585;SDS011;2305;50.118;8.952;2024-03-02T01:46:35;8.17;;;4.97;;
4585;SDS011;2305;50.118;8.952;2024-03-02T01:49:03;8.53;;;5.03;;
4585;SDS011;2305;50.118;8.952;2024-03-02T01:51:31;6.20;;;4.30;;
4585;SDS011;2305;50.118;8.952;2024-03-02T01:54:02;5.60;;;3.90;;
4585;SDS011;2305;50.118;8.952;2024-03-02T01:56:30;8.00;;;4.20;;
4585;SDS011;2305;50.118;8.952;2024-03-02T01:58:58;5.87;;;3.87;;
4585;SDS011;2305;50.118;8.952;2024-03-02T02:01:28;5.73;;;4.07;;
4585;SDS011;2305;50.118;8.952;2024-03-02T02:03:58;7.37;;;4.50;;
4585;SDS011;2305;50.118;8.952;2024-03-02T02:06:27;10.40;;;4.83;;
4585;SDS011;2305;50.118;8.952;2024-03-02T02:08:56;9.03;;;4.30;;
4585;SDS011;2305;50.118;8.952;2024-03-02T02:11:24;6.80;;;4.47;;
4585;SDS011;2305;50.118;8.952;2024-03-02T02:13:55;6.33;;;4.80;;
4585;SDS011;2305;50.118;8.952;2024-03-02T02:16:23;7.07;;;4.90;;
4585;SDS011;2305;50.118;8.952;2024-03-02T02:18:54;8.30;;;4.97;;
4585;SDS011;2305;50.118;8.952;2024-03-02T02:21:27;10.07;;;5.50;;
4585;SDS011;2305;50.118;8.952;2024-03-02T02:23:55;7.33;;;4.20;;
4585;SDS011;2305;50.118;8.952;2024-03-02T02:26:23;7.90;;;4.80;;
4585;SDS011;2305;50.118;8.952;2024-03-02T02:28:51;6.67;;;4.70;;
4585;SDS011;2305;50.118;8.952;2024-03-02T02:31:22;7.70;;;4.87;;
4585;SDS011;2305;50.118;8.952;2024-03-02T02:33:49;9.10;;;5.20;;
4585;SDS011;2305;50.118;8.952;2024-03-02T02:36:18;7.87;;;4.20;;
4585;SDS011;2305;50.118;8.952;2024-03-02T02:38:47;6.27;;;4.33;;
4585;SDS011;2305;50.118;8.952;2024-03-02T02:41:17;5.87;;;4.27;;
4585;SDS011;2305;50.118;8.952;2024-03-02T02:43:44;5.23;;;4.30;;
4585;SDS011;2305;50.118;8.952;2024-03-02T02:46:15;7.07;;;4.80;;
4585;SDS011;2305;50.118;8.952;2024-03-02T02:48:43;7.90;;;4.27;;
4585;SDS011;2305;50.118;8.952;2024-03-02T02:51:12;7.17;;;4.93;;
4585;SDS011;2305;50.118;8.952;2024-03-02T02:53:40;13.33;;;4.17;;
4585;SDS011;2305;50.118;8.952;2024-03-02T02:56:10;7.30;;;4.13;;
4585;SDS011;2305;50.118;8.952;2024-03-02T02:58:39;7.37;;;3.90;;
4585;SDS011;2305;50.118;8.952;2024-03-02T03:01:08;8.50;;;4.87;;
4585;SDS011;2305;50.118;8.952;2024-03-02T03:03:37;11.73;;;6.47;;
4585;SDS011;2305;50.118;8.952;2024-03-02T03:06:05;6.13;;;3.63;;
4585;SDS011;2305;50.118;8.952;2024-03-02T03:08:33;9.33;;;4.70;;
4585;SDS011;2305;50.118;8.952;2024-03-02T03:11:02;9.00;;;5.53;;
4585;SDS011;2305;50.118;8.952;2024-03-02T03:13:34;9.87;;;5.53;;
4585;SDS011;2305;50.118;8.952;2024-03-02T03:16:03;10.10;;;6.00;;
4585;SDS011;2305;50.118;8.952;2024-03-02T03:18:32;8.23;;;5.27;;
4585;SDS011;2305;50.118;8.952;2024-03-02T03:21:00;7.80;;;5.23;;
4585;SDS011;2305;50.118;8.952;2024-03-02T03:23:29;9.77;;;5.17;;
4585;SDS011;2305;50.118;8.952;2024-03-02T03:25:59;6.27;;;4.90;;
4585;SDS011;2305;50.118;8.952;2024-03-02T03:28:29;11.20;;;5.17;;
4585;SDS011;2305;50.118;8.952;2024-03-02T03:31:01;14.37;;;5.90;;
4585;SDS011;2305;50.118;8.952;2024-03-02T03:33:30;10.23;;;5.30;;
4585;SDS011;2305;50.118;8.952;2024-03-02T03:35:58;7.63;;;4.90;;
4585;SDS011;2305;50.118;8.952;2024-03-02T03:38:26;7.60;;;5.10;;
4585;SDS011;2305;50.118;8.952;2024-03-02T03:40:55;10.93;;;5.47;;
4585;SDS011;2305;50.118;8.952;2024-03-02T03:43:23;7.20;;;5.23;;
4585;SDS011;2305;50.118;8.952;2024-03-02T03:45:51;9.40;;;6.30;;
4585;SDS011;2305;50.118;8.952;2024-03-02T03:48:21;11.83;;;6.13;;
4585;SDS011;2305;50.118;8.952;2024-03-02T03:50:49;10.67;;;5.80;;
4585;SDS011;2305;50.118;8.952;2024-03-02T03:53:20;9.33;;;5.77;;
4585;SDS011;2305;50.118;8.952;2024-03-02T03:55:48;9.93;;;5.87;;
4585;SDS011;2305;50.118;8.952;2024-03-02T03:58:16;7.93;;;4.90;;
4585;SDS011;2305;50.118;8.952;2024-03-02T04:00:49;9.03;;;5.37;;
4585;SDS011;2305;50.118;8.952;2024-03-02T04:03:17;9.00;;;5.57;;
4585;SDS011;2305;50.118;8.952;2024-03-02T04:05:46;6.47;;;4.90;;
4585;SDS011;2305;50.118;8.952;2024-03-02T04:08:16;11.10;;;5.63;;
4585;SDS011;2305;50.118;8.952;2024-03-02T04:10:44;9.57;;;5.80;;
4585;SDS011;2305;50.118;8.952;2024-03-02T04:13:12;11.63;;;5.70;;
4585;SDS011;2305;50.118;8.952;2024-03-02T04:15:42;10.03;;;6.30;;
4585;SDS011;2305;50.118;8.952;2024-03-02T04:18:10;16.73;;;5.53;;
4585;SDS011;2305;50.118;8.952;2024-03-02T04:20:41;9.43;;;5.57;;
4585;SDS011;2305;50.118;8.952;2024-03-02T04:23:10;10.00;;;5.90;;
4585;SDS011;2305;50.118;8.952;2024-03-02T04:25:38;12.97;;;6.67;;
4585;SDS011;2305;50.118;8.952;2024-03-02T04:28:09;9.33;;;6.13;;
4585;SDS011;2305;50.118;8.952;2024-03-02T04:30:43;12.57;;;5.97;;
4585;SDS011;2305;50.118;8.952;2024-03-02T04:33:11;8.60;;;6.27;;
4585;SDS011;2305;50.118;8.952;2024-03-02T04:35:44;9.67;;;5.80;;
4585;SDS011;2305;50.118;8.952;2024-03-02T04:38:14;12.57;;;6.10;;
4585;SDS011;2305;50.118;8.952;2024-03-02T04:40:42;11.00;;;6.40;;
4585;SDS011;2305;50.118;8.952;2024-03-02T04:43:11;8.30;;;5.03;;
4585;SDS011;2305;50.118;8.952;2024-03-02T04:45:43;11.00;;;5.50;;
4585;SDS011;2305;50.118;8.952;2024-03-02T04:48:11;11.67;;;5.97;;
4585;SDS011;2305;50.118;8.952;2024-03-02T04:50:39;9.20;;;6.40;;
4585;SDS011;2305;50.118;8.952;2024-03-02T04:53:08;8.80;;;5.40;;
4585;SDS011;2305;50.118;8.952;2024-03-02T04:55:41;11.20;;;6.23;;
4585;SDS011;2305;50.118;8.952;2024-03-02T04:58:27;13.10;;;6.77;;
4585;SDS011;2305;50.118;8.952;2024-03-02T05:00:55;11.07;;;6.33;;
4585;SDS011;2305;50.118;8.952;2024-03-02T05:03:26;14.10;;;6.87;;
4585;SDS011;2305;50.118;8.952;2024-03-02T05:05:54;10.17;;;6.40;;
4585;SDS011;2305;50.118;8.952;2024-03-02T05:08:25;9.47;;;5.70;;
4585;SDS011;2305;50.118;8.952;2024-03-02T05:10:56;11.07;;;6.53;;
4585;SDS011;2305;50.118;8.952;2024-03-02T05:13:45;9.63;;;6.03;;
4585;SDS011;2305;50.118;8.952;2024-03-02T05:16:13;11.07;;;5.50;;
4585;SDS011;2305;50.118;8.952;2024-03-02T05:18:41;7.83;;;5.20;;
4585;SDS011;2305;50.118;8.952;2024-03-02T05:21:09;9.43;;;5.10;;
4585;SDS011;2305;50.118;8.952;2024-03-02T05:23:38;11.73;;;6.10;;
4585;SDS011;2305;50.118;8.952;2024-03-02T05:26:10;10.90;;;6.60;;
4585;SDS011;2305;50.118;8.952;2024-03-02T05:28:41;11.27;;;6.97;;
4585;SDS011;2305;50.118;8.952;2024-03-02T05:31:11;11.30;;;6.17;;
4585;SDS011;2305;50.118;8.952;2024-03-02T05:33:43;11.13;;;7.00;;
4585;SDS011;2305;50.118;8.952;2024-03-02T05:36:11;12.50;;;6.57;;
4585;SDS011;2305;50.118;8.952;2024-03-02T05:38:40;9.27;;;6.27;;
4585;SDS011;2305;50.118;8.952;2024-03-02T05:41:08;10.10;;;6.80;;
4585;SDS011;2305;50.118;8.952;2024-03-02T05:43:38;9.80;;;6.40;;
4585;SDS011;2305;50.118;8.952;2024-03-02T05:46:06;21.67;;;7.30;;
4585;SDS011;2305;50.118;8.952;2024-03-02T05:48:36;12.40;;;7.63;;
4585;SDS011;2305;50.118;8.952;2024-03-02T05:51:07;16.10;;;9.43;;
4585;SDS011;2305;50.118;8.952;2024-03-02T05:53:35;18.70;;;9.93;;
4585;SDS011;2305;50.118;8.952;2024-03-02T05:56:05;15.40;;;7.80;;
4585;SDS011;2305;50.118;8.952;2024-03-02T05:58:38;14.23;;;7.80;;
4585;SDS011;2305;50.118;8.952;2024-03-02T06:01:19;11.43;;;6.80;;
4585;SDS011;2305;50.118;8.952;2024-03-02T06:03:49;11.97;;;6.70;;
4585;SDS011;2305;50.118;8.952;2024-03-02T06:06:17;12.03;;;6.73;;
4585;SDS011;2305;50.118;8.952;2024-03-02T06:08:47;12.90;;;7.20;;
4585;SDS011;2305;50.118;8.952;2024-03-02T06:11:18;12.10;;;6.57;;
4585;SDS011;2305;50.118;8.952;2024-03-02T06:13:48;15.90;;;7.87;;
4585;SDS011;2305;50.118;8.952;2024-03-02T06:16:16;10.77;;;7.13;;
4585;SDS011;2305;50.118;8.952;2024-03-02T06:18:44;13.27;;;7.97;;
4585;SDS011;2305;50.118;8.952;2024-03-02T06:21:12;14.67;;;8.50;;
4585;SDS011;2305;50.118;8.952;2024-03-02T06:23:40;14.47;;;7.43;;
4585;SDS011;2305;50.118;8.952;2024-03-02T06:26:09;13.93;;;8.30;;
4585;SDS011;2305;50.118;8.952;2024-03-02T06:28:39;13.37;;;7.57;;
4585;SDS011;2305;50.118;8.952;2024-03-02T06:31:11;11.13;;;7.47;;
4585;SDS011;2305;50.118;8.952;2024-03-02T06:33:41;12.70;;;7.50;;
4585;SDS011;2305;50.118;8.952;2024-03-02T06:36:12;12.90;;;6.93;;
4585;SDS011;2305;50.118;8.952;2024-03-02T06:38:44;13.67;;;7.10;;
4585;SDS011;2305;50.118;8.952;2024-03-02T06:41:14;13.13;;;7.23;;
4585;SDS011;2305;50.118;8.952;2024-03-02T06:43:43;18.00;;;7.87;;
4585;SDS011;2305;50.118;8.952;2024-03-02T06:46:15;11.50;;;7.03;;
4585;SDS011;2305;50.118;8.952;2024-03-02T06:48:43;17.60;;;6.63;;
4585;SDS011;2305;50.118;8.952;2024-03-02T06:51:11;13.83;;;7.03;;
4585;SDS011;2305;50.118;8.952;2024-03-02T06:53:39;19.57;;;8.20;;
4585;SDS011;2305;50.118;8.952;2024-03-02T06:56:07;11.40;;;6.87;;
4585;SDS011;2305;50.118;8.952;2024-03-02T06:58:36;14.00;;;7.30;;
4585;SDS011;2305;50.118;8.952;2024-03-02T07:01:08;16.40;;;7.70;;
4585;SDS011;2305;50.118;8.952;2024-03-02T07:03:38;14.33;;;7.40;;
4585;SDS011;2305;50.118;8.952;2024-03-02T07:06:06;15.77;;;8.60;;
4585;SDS011;2305;50.118;8.952;2024-03-02T07:08:34;13.57;;;7.57;;
4585;SDS011;2305;50.118;8.952;2024-03-02T07:11:03;11.67;;;6.73;;
4585;SDS011;2305;50.118;8.952;2024-03-02T07:13:31;12.50;;;7.80;;
4585;SDS011;2305;50.118;8.952;2024-03-02T07:15:58;13.90;;;8.57;;
4585;SDS011;2305;50.118;8.952;2024-03-02T07:18:43;12.43;;;7.70;;
4585;SDS011;2305;50.118;8.952;2024-03-02T07:21:18;19.40;;;9.13;;
4585;SDS011;2305;50.118;8.952;2024-03-02T07:23:46;17.00;;;8.67;;
4585;SDS011;2305;50.118;8.952;2024-03-02T07:26:15;16.60;;;8.37;;
4585;SDS011;2305;50.118;8.952;2024-03-02T07:28:47;15.10;;;8.23;;
4585;SDS011;2305;50.118;8.952;2024-03-02T07:31:18;14.80;;;9.10;;
4585;SDS011;2305;50.118;8.952;2024-03-02T07:33:48;12.80;;;7.97;;
4585;SDS011;2305;50.118;8.952;2024-03-02T07:36:18;13.47;;;7.20;;
4585;SDS011;2305;50.118;8.952;2024-03-02T07:38:46;11.63;;;7.53;;
4585;SDS011;2305;50.118;8.952;2024-03-02T07:41:16;14.53;;;7.80;;
4585;SDS011;2305;50.118;8.952;2024-03-02T07:43:44;18.83;;;9.17;;
4585;SDS011;2305;50.118;8.952;2024-03-02T07:46:13;12.67;;;7.83;;
4585;SDS011;2305;50.118;8.952;2024-03-02T07:48:41;18.10;;;8.07;;
4585;SDS011;2305;50.118;8.952;2024-03-02T07:51:11;15.67;;;8.80;;
4585;SDS011;2305;50.118;8.952;2024-03-02T07:53:42;15.57;;;8.93;;
4585;SDS011;2305;50.118;8.952;2024-03-02T07:56:13;16.27;;;7.97;;
4585;SDS011;2305;50.118;8.952;2024-03-02T07:58:48;15.40;;;7.80;;
4585;SDS011;2305;50.118;8.952;2024-03-02T08:01:16;18.10;;;9.30;;
4585;SDS011;2305;50.118;8.952;2024-03-02T08:03:45;15.03;;;9.20;;
4585;SDS011;2305;50.118;8.952;2024-03-02T08:06:17;16.30;;;8.43;;
4585;SDS011;2305;50.118;8.952;2024-03-02T08:08:47;13.97;;;8.97;;
4585;SDS011;2305;50.118;8.952;2024-03-02T08:11:16;12.57;;;7.93;;
4585;SDS011;2305;50.118;8.952;2024-03-02T08:13:44;19.83;;;8.90;;
4585;SDS011;2305;50.118;8.952;2024-03-02T08:16:12;13.10;;;8.50;;
4585;SDS011;2305;50.118;8.952;2024-03-02T08:18:40;17.23;;;9.73;;
4585;SDS011;2305;50.118;8.952;2024-03-02T08:21:08;13.10;;;7.60;;
4585;SDS011;2305;50.118;8.952;2024-03-02T08:23:38;16.43;;;9.70;;
4585;SDS011;2305;50.118;8.952;2024-03-02T08:26:09;16.90;;;8.73;;
4585;SDS011;2305;50.118;8.952;2024-03-02T08:28:38;14.43;;;8.73;;
4585;SDS011;2305;50.118;8.952;2024-03-02T08:31:09;13.17;;;8.53;;
4585;SDS011;2305;50.118;8.952;2024-03-02T08:33:37;18.40;;;9.13;;
4585;SDS011;2305;50.118;8.952;2024-03-02T08:36:11;16.87;;;9.40;;
4585;SDS011;2305;50.118;8.952;2024-03-02T08:38:41;13.20;;;8.37;;
4585;SDS011;2305;50.118;8.952;2024-03-02T08:41:10;14.90;;;8.50;;
4585;SDS011;2305;50.118;8.952;2024-03-02T08:43:40;15.63;;;8.73;;
4585;SDS011;2305;50.118;8.952;2024-03-02T08:46:09;17.47;;;9.30;;
4585;SDS011;2305;50.118;8.952;2024-03-02T08:48:37;17.77;;;9.20;;
4585;SDS011;2305;50.118;8.952;2024-03-02T08:51:05;15.53;;;9.03;;
4585;SDS011;2305;50.118;8.952;2024-03-02T08:53:34;14.43;;;8.20;;
4585;SDS011;2305;50.118;8.952;2024-03-02T08:56:04;16.33;;;7.97;;
4585;SDS011;2305;50.118;8.952;2024-03-02T08:58:32;14.30;;;8.73;;
4585;SDS011;2305;50.118;8.952;2024-03-02T09:01:00;18.70;;;8.93;;
4585;SDS011;2305;50.118;8.952;2024-03-02T09:03:29;13.03;;;8.37;;
4585;SDS011;2305;50.118;8.952;2024-03-02T09:06:02;12.00;;;7.70;;
4585;SDS011;2305;50.118;8.952;2024-03-02T09:08:30;13.33;;;8.20;;
4585;SDS011;2305;50.118;8.952;2024-03-02T09:10:58;14.70;;;7.80;;
4585;SDS011;2305;50.118;8.952;2024-03-02T09:13:28;14.20;;;8.30;;
4585;SDS011;2305;50.118;8.952;2024-03-02T09:15:56;12.53;;;7.63;;
4585;SDS011;2305;50.118;8.952;2024-03-02T09:18:24;16.40;;;8.20;;
4585;SDS011;2305;50.118;8.952;2024-03-02T09:20:52;14.30;;;8.60;;
4585;SDS011;2305;50.118;8.952;2024-03-02T09:23:20;11.67;;;7.80;;
4585;SDS011;2305;50.118;8.952;2024-03-02T09:25:49;14.93;;;8.10;;
4585;SDS011;2305;50.118;8.952;2024-03-02T09:28:17;14.60;;;9.50;;
4585;SDS011;2305;50.118;8.952;2024-03-02T09:30:47;12.30;;;7.83;;
4585;SDS011;2305;50.118;8.952;2024-03-02T09:33:14;18.20;;;9.30;;
4585;SDS011;2305;50.118;8.952;2024-03-02T09:35:43;13.67;;;8.80;;
4585;SDS011;2305;50.118;8.952;2024-03-02T09:38:12;13.10;;;8.60;;
4585;SDS011;2305;50.118;8.952;2024-03-02T09:40:40;16.23;;;7.60;;
4585;SDS011;2305;50.118;8.952;2024-03-02T09:43:09;11.47;;;8.30;;
4585;SDS011;2305;50.118;8.952;2024-03-02T09:45:37;12.10;;;6.70;;
4585;SDS011;2305;50.118;8.952;2024-03-02T09:48:07;18.47;;;8.07;;
4585;SDS011;2305;50.118;8.952;2024-03-02T09:50:35;18.67;;;7.60;;
4585;SDS011;2305;50.118;8.952;2024-03-02T09:53:04;12.80;;;7.40;;
4585;SDS011;2305;50.118;8.952;2024-03-02T09:55:32;11.93;;;7.43;;
4585;SDS011;2305;50.118;8.952;2024-03-02T09:58:00;12.83;;;8.00;;
4585;SDS011;2305;50.118;8.952;2024-03-02T10:00:28;12.23;;;6.83;;
4585;SDS011;2305;50.118;8.952;2024-03-02T10:02:56;11.57;;;7.27;;
4585;SDS011;2305;50.118;8.952;2024-03-02T10:05:27;9.33;;;5.87;;
4585;SDS011;2305;50.118;8.952;2024-03-02T10:07:59;17.40;;;6.67;;
4585;SDS011;2305;50.118;8.952;2024-03-02T10:10:35;11.47;;;7.37;;
4585;SDS011;2305;50.118;8.952;2024-03-02T10:13:06;11.27;;;6.00;;
4585;SDS011;2305;50.118;8.952;2024-03-02T10:15:37;7.20;;;4.93;;
4585;SDS011;2305;50.118;8.952;2024-03-02T10:18:08;10.13;;;5.90;;
4585;SDS011;2305;50.118;8.952;2024-03-02T10:20:39;8.60;;;5.83;;
4585;SDS011;2305;50.118;8.952;2024-03-02T10:23:11;10.57;;;6.23;;
4585;SDS011;2305;50.118;8.952;2024-03-02T10:25:41;8.40;;;6.13;;
4585;SDS011;2305;50.118;8.952;2024-03-02T10:28:25;9.80;;;5.87;;
4585;SDS011;2305;50.118;8.952;2024-03-02T10:30:55;9.97;;;6.60;;
4585;SDS011;2305;50.118;8.952;2024-03-02T10:33:23;10.80;;;6.40;;
4585;SDS011;2305;50.118;8.952;2024-03-02T10:35:54;10.70;;;5.70;;
4585;SDS011;2305;50.118;8.952;2024-03-02T10:38:22;9.27;;;6.80;;
4585;SDS011;2305;50.118;8.952;2024-03-02T10:40:52;9.70;;;6.07;;
4585;SDS011;2305;50.118;8.952;2024-03-02T10:43:23;8.33;;;5.93;;
4585;SDS011;2305;50.118;8.952;2024-03-02T10:45:51;9.50;;;6.23;;
4585;SDS011;2305;50.118;8.952;2024-03-02T10:48:21;8.13;;;5.13;;
4585;SDS011;2305;50.118;8.952;2024-03-02T10:50:54;9.60;;;5.67;;
4585;SDS011;2305;50.118;8.952;2024-03-02T10:53:24;7.60;;;4.87;;
4585;SDS011;2305;50.118;8.952;2024-03-02T10:55:52;8.97;;;5.30;;
4585;SDS011;2305;50.118;8.952;2024-03-02T10:58:31;7.37;;;5.20;;
4585;SDS011;2305;50.118;8.952;2024-03-02T11:01:01;8.80;;;5.00;;
4585;SDS011;2305;50.118;8.952;2024-03-02T11:03:33;7.03;;;4.40;;
4585;SDS011;2305;50.118;8.952;2024-03-02T11:06:07;6.57;;;4.20;;
4585;SDS011;2305;50.118;8.952;2024-03-02T11:08:38;9.67;;;5.20;;
4585;SDS011;2305;50.118;8.952;2024-03-02T11:11:13;9.60;;;4.77;;
4585;SDS011;2305;50.118;8.952;2024-03-02T11:13:46;5.70;;;4.50;;
4585;SDS011;2305;50.118;8.952;2024-03-02T11:16:18;7.30;;;4.83;;
4585;SDS011;2305;50.118;8.952;2024-03-02T11:18:53;6.23;;;4.90;;
4585;SDS011;2305;50.118;8.952;2024-03-02T11:21:26;7.33;;;4.90;;
4585;SDS011;2305;50.118;8.952;2024-03-02T11:23:54;9.53;;;3.83;;
4585;SDS011;2305;50.118;8.952;2024-03-02T11:26:22;5.40;;;4.10;;
4585;SDS011;2305;50.118;8.952;2024-03-02T11:28:51;5.73;;;4.17;;
4585;SDS011;2305;50.118;8.952;2024-03-02T11:31:19;5.20;;;3.30;;
4585;SDS011;2305;50.118;8.952;2024-03-02T11:33:50;5.77;;;3.33;;
4585;SDS011;2305;50.118;8.952;2024-03-02T11:36:18;6.07;;;3.87;;
4585;SDS011;2305;50.118;8.952;2024-03-02T11:38:48;6.50;;;3.83;;
4585;SDS011;2305;50.118;8.952;2024-03-02T11:41:20;5.80;;;3.90;;
4585;SDS011;2305;50.118;8.952;2024-03-02T11:43:48;7.63;;;4.13;;
4585;SDS011;2305;50.118;8.952;2024-03-02T11:46:18;4.90;;;3.13;;
4585;SDS011;2305;50.118;8.952;2024-03-02T11:48:50;7.50;;;3.80;;
4585;SDS011;2305;50.118;8.952;2024-03-02T11:51:18;6.53;;;3.10;;
4585;SDS011;2305;50.118;8.952;2024-03-02T11:53:48;14.33;;;2.67;;
4585;SDS011;2305;50.118;8.952;2024-03-02T11:56:18;5.33;;;2.83;;
4585;SDS011;2305;50.118;8.952;2024-03-02T11:58:48;4.60;;;2.83;;
4585;SDS011;2305;50.118;8.952;2024-03-02T12:01:19;5.20;;;3.10;;
4585;SDS011;2305;50.118;8.952;2024-03-02T12:03:48;6.70;;;3.20;;
4585;SDS011;2305;50.118;8.952;2024-03-02T12:06:17;3.33;;;2.43;;
4585;SDS011;2305;50.118;8.952;2024-03-02T12:08:45;3.50;;;2.40;;
4585;SDS011;2305;50.118;8.952;2024-03-02T12:11:17;4.30;;;3.10;;
4585;SDS011;2305;50.118;8.952;2024-03-02T12:13:51;4.17;;;2.43;;
4585;SDS011;2305;50.118;8.952;2024-03-02T12:16:24;4.17;;;2.60;;
4585;SDS011;2305;50.118;8.952;2024-03-02T12:18:52;4.40;;;2.37;;
4585;SDS011;2305;50.118;8.952;2024-03-02T12:21:21;3.40;;;2.43;;
4585;SDS011;2305;50.118;8.952;2024-03-02T12:23:49;2.63;;;2.00;;
4585;SDS011;2305;50.118;8.952;2024-03-02T12:26:21;4.50;;;2.77;;
4585;SDS011;2305;50.118;8.952;2024-03-02T12:28:52;3.27;;;2.33;;
4585;SDS011;2305;50.118;8.952;2024-03-02T12:31:20;5.43;;;3.00;;
4585;SDS011;2305;50.118;8.952;2024-03-02T12:33:48;3.43;;;2.27;;
4585;SDS011;2305;50.118;8.952;2024-03-02T12:36:16;6.40;;;2.37;;
4585;SDS011;2305;50.118;8.952;2024-03-02T12:38:45;3.97;;;1.83;;
4585;SDS011;2305;50.118;8.952;2024-03-02T12:41:15;2.70;;;2.10;;
4585;SDS011;2305;50.118;8.952;2024-03-02T12:43:44;2.60;;;1.70;;
4585;SDS011;2305;50.118;8.952;2024-03-02T12:46:14;2.73;;;1.90;;
4585;SDS011;2305;50.118;8.952;2024-03-02T12:48:43;2.80;;;1.80;;
4585;SDS011;2305;50.118;8.952;2024-03-02T12:51:11;2.80;;;2.00;;
4585;SDS011;2305;50.118;8.952;2024-03-02T12:53:41;2.60;;;1.73;;
4585;SDS011;2305;50.118;8.952;2024-03-02T12:56:11;2.10;;;1.60;;
4585;SDS011;2305;50.118;8.952;2024-03-02T12:58:42;2.53;;;1.87;;
4585;SDS011;2305;50.118;8.952;2024-03-02T13:01:14;2.90;;;1.33;;
4585;SDS011;2305;50.118;8.952;2024-03-02T13:03:47;2.67;;;1.50;;
4585;SDS011;2305;50.118;8.952;2024-03-02T13:06:16;1.73;;;1.43;;
4585;SDS011;2305;50.118;8.952;2024-03-02T13:08:48;3.60;;;1.30;;
4585;SDS011;2305;50.118;8.952;2024-03-02T13:11:16;1.90;;;1.57;;
4585;SDS011;2305;50.118;8.952;2024-03-02T13:13:44;2.37;;;1.40;;
4585;SDS011;2305;50.118;8.952;2024-03-02T13:16:17;3.50;;;1.43;;
4585;SDS011;2305;50.118;8.952;2024-03-02T13:18:55;2.30;;;1.33;;
4585;SDS011;2305;50.118;8.952;2024-03-02T13:21:23;2.00;;;1.20;;
4585;SDS011;2305;50.118;8.952;2024-03-02T13:23:52;2.23;;;1.40;;
4585;SDS011;2305;50.118;8.952;2024-03-02T13:26:19;1.83;;;1.30;;
4585;SDS011;2305;50.118;8.952;2024-03-02T13:28:48;2.30;;;1.60;;
4585;SDS011;2305;50.118;8.952;2024-03-02T13:31:19;1.93;;;1.20;;
4585;SDS011;2305;50.118;8.952;2024-03-02T13:33:47;1.60;;;1.20;;
4585;SDS011;2305;50.118;8.952;2024-03-02T13:36:15;1.87;;;1.10;;
4585;SDS011;2305;50.118;8.952;2024-03-02T13:38:44;1.63;;;1.20;;
4585;SDS011;2305;50.118;8.952;2024-03-02T13:41:12;2.33;;;1.30;;
4585;SDS011;2305;50.118;8.952;2024-03-02T13:43:41;1.40;;;0.90;;
4585;SDS011;2305;50.118;8.952;2024-03-02T13:46:11;1.70;;;1.27;;
4585;SDS011;2305;50.118;8.952;2024-03-02T13:48:42;1.63;;;1.10;;
4585;SDS011;2305;50.118;8.952;2024-03-02T13:51:13;4.00;;;1.70;;
4585;SDS011;2305;50.118;8.952;2024-03-02T13:53:41;2.00;;;1.40;;
4585;SDS011;2305;50.118;8.952;2024-03-02T13:56:09;2.33;;;1.33;;
4585;SDS011;2305;50.118;8.952;2024-03-02T13:58:37;1.60;;;1.13;;
4585;SDS011;2305;50.118;8.952;2024-03-02T14:01:05;2.07;;;1.23;;
4585;SDS011;2305;50.118;8.952;2024-03-02T14:03:33;2.00;;;1.50;;
4585;SDS011;2305;50.118;8.952;2024-03-02T14:06:03;2.70;;;1.67;;
4585;SDS011;2305;50.118;8.952;2024-03-02T14:08:34;1.73;;;1.27;;
4585;SDS011;2305;50.118;8.952;2024-03-02T14:11:02;2.80;;;1.60;;
4585;SDS011;2305;50.118;8.952;2024-03-02T14:13:30;2.40;;;1.30;;
4585;SDS011;2305;50.118;8.952;2024-03-02T14:15:58;1.47;;;1.17;;
4585;SDS011;2305;50.118;8.952;2024-03-02T14:18:27;5.93;;;1.10;;
4585;SDS011;2305;50.118;8.952;2024-03-02T14:20:55;2.20;;;1.20;;
4585;SDS011;2305;50.118;8.952;2024-03-02T14:23:24;1.23;;;0.90;;
4585;SDS011;2305;50.118;8.952;2024-03-02T14:25:57;1.30;;;0.90;;
4585;SDS011;2305;50.118;8.952;2024-03-02T14:28:27;1.60;;;1.20;;
4585;SDS011;2305;50.118;8.952;2024-03-02T14:31:15;2.17;;;1.10;;
4585;SDS011;2305;50.118;8.952;2024-03-02T14:33:44;1.57;;;1.17;;
4585;SDS011;2305;50.118;8.952;2024-03-02T14:36:12;1.80;;;1.20;;
4585;SDS011;2305;50.118;8.952;2024-03-02T14:38:43;1.70;;;1.23;;
4585;SDS011;2305;50.118;8.952;2024-03-02T14:41:11;1.63;;;1.20;;
4585;SDS011;2305;50.118;8.952;2024-03-02T14:43:40;1.70;;;1.20;;
4585;SDS011;2305;50.118;8.952;2024-03-02T14:46:15;2.30;;;1.70;;
4585;SDS011;2305;50.118;8.952;2024-03-02T14:48:44;1.73;;;1.20;;
4585;SDS011;2305;50.118;8.952;2024-03-02T14:51:14;2.17;;;1.10;;
4585;SDS011;2305;50.118;8.952;2024-03-02T14:53:46;2.07;;;1.43;;
4585;SDS011;2305;50.118;8.952;2024-03-02T14:56:15;1.47;;;1.20;;
4585;SDS011;2305;50.118;8.952;2024-03-02T14:58:46;4.50;;;1.10;;
4585;SDS011;2305;50.118;8.952;2024-03-02T15:01:16;1.73;;;1.37;;
4585;SDS011;2305;50.118;8.952;2024-03-02T15:03:51;1.57;;;1.30;;
4585;SDS011;2305;50.118;8.952;2024-03-02T15:06:25;3.03;;;1.30;;
4585;SDS011;2305;50.118;8.952;2024-03-02T15:08:54;2.30;;;1.40;;
4585;SDS011;2305;50.118;8.952;2024-03-02T15:11:25;2.27;;;1.10;;
4585;SDS011;2305;50.118;8.952;2024-03-02T15:13:54;2.00;;;1.43;;
4585;SDS011;2305;50.118;8.952;2024-03-02T15:16:22;1.70;;;1.10;;
4585;SDS011;2305;50.118;8.952;2024-03-02T15:18:51;1.60;;;1.20;;
4585;SDS011;2305;50.118;8.952;2024-03-02T15:21:21;1.57;;;1.13;;
4585;SDS011;2305;50.118;8.952;2024-03-02T15:23:55;2.23;;;1.30;;
4585;SDS011;2305;50.118;8.952;2024-03-02T15:26:23;3.13;;;1.87;;